KBMI

Central Illinois Regional at Bloomington-Normal Airport

Bloomington/Normal, Illinois, USA
METAR KBMI 220956Z AUTO 33004KT 10SM SCT060 18/17 A3000 RMK AO2 SLP173 T01830172
Observed Flight Rules
May-22 @ 09:56 UTC (15 minutes ago) Visual Flight Rules
Wind Visibility Clouds
330° at 4 knots 10 miles
  • Scattered at 6,000' AGL
Temperatures Readings
Current 18°C / 64°F
Dewpoint 17°C / 63°F
Humidity 94%
Altimeter 30" Hg
Pressure 1017.3 hPa
Elevation 267
METAR KBMI 220956Z AUTO 33004KT 10SM SCT060 18/17 A3000 RMK AO2 SLP173 T01830172
Observed Flight Rules
May-22 @ 09:56 UTC
(15 minutes ago)
VFR
Wind Visibility
330° at 4 knots 10 miles
Clouds
  • Scattered at 6,000' AGL
Temperature Dewpoint
18°C / 64°F 17°C / 63°F
Humidity Altimeter Pressure
94% 30" Hg 1017.3 hPa